Time;durP1;ratioP1;P1;durP2;ratioP2;P2;SDS_P1;SDS_P2;PMS_P1;PMS_P2;Temp;Humidity;BMP_temperature;BMP_pressure;BME280_temperature;BME280_humidity;BME280_pressure;Samples;Min_cycle;Max_cycle;Signal;HPM_P1;HPM_P2
2021/03/19 00:00:34;;;;;;;105.22;49.88;;;;;;;-3.18;80.99;98029.03;1826556;77;21136;-72
2021/03/19 00:03:03;;;;;;;99.93;47.73;;;;;;;-3.20;82.04;98020.45;1826759;78;21099;-72
2021/03/19 00:05:29;;;;;;;113.37;52.08;;;;;;;-3.18;81.61;98016.59;1826530;77;21105;-71
2021/03/19 00:07:57;;;;;;;100.55;49.42;;;;;;;-3.17;81.52;98016.91;1826507;78;22110;-71
2021/03/19 00:10:29;;;;;;;116.90;50.73;;;;;;;-3.20;81.22;98015.98;1826535;77;21030;-72
2021/03/19 00:12:57;;;;;;;118.55;54.45;;;;;;;-3.17;80.49;98012.94;1826635;78;21030;-72
2021/03/19 00:15:24;;;;;;;113.85;53.20;;;;;;;-3.21;81.12;98020.15;1826538;77;21194;-72
2021/03/19 00:17:50;;;;;;;112.15;49.30;;;;;;;-3.20;80.96;98019.14;1826531;78;21504;-72
2021/03/19 00:20:16;;;;;;;102.30;49.58;;;;;;;-3.14;80.69;98015.73;1826533;77;21122;-72
2021/03/19 00:22:43;;;;;;;96.20;48.38;;;;;;;-3.14;81.06;98016.55;1826585;78;21027;-72
2021/03/19 00:25:10;;;;;;;99.32;47.45;;;;;;;-3.08;80.57;98015.44;1826519;77;21121;-72
2021/03/19 00:27:36;;;;;;;104.00;49.13;;;;;;;-3.07;80.85;98009.16;1826532;78;22247;-72
2021/03/19 00:30:08;;;;;;;98.95;47.23;;;;;;;-3.05;80.89;98010.59;1826550;77;21035;-72
2021/03/19 00:32:35;;;;;;;87.42;44.73;;;;;;;-2.99;80.88;98014.28;1826610;78;21062;-72
2021/03/19 00:35:01;;;;;;;99.75;47.73;;;;;;;-2.97;80.01;98015.75;1826621;77;21420;-72
2021/03/19 00:37:27;;;;;;;95.32;44.18;;;;;;;-3.04;80.66;98014.88;1826524;78;21086;-72
2021/03/19 00:39:54;;;;;;;96.28;44.48;;;;;;;-2.98;79.87;98014.63;1826529;77;21191;-72
2021/03/19 00:42:20;;;;;;;101.05;48.55;;;;;;;-3.03;79.72;98006.41;1826456;78;21098;-72
2021/03/19 00:44:46;;;;;;;107.78;50.73;;;;;;;-3.07;80.42;98017.11;1826512;77;21142;-72
2021/03/19 00:47:12;;;;;;;101.58;45.83;;;;;;;-3.03;80.80;98009.06;1826648;78;21019;-72
2021/03/19 00:49:38;;;;;;;89.00;44.08;;;;;;;-2.98;79.83;98006.16;1826738;77;21490;-72
2021/03/19 00:52:05;;;;;;;90.92;41.25;;;;;;;-3.00;79.47;98000.71;1826795;78;21191;-72
2021/03/19 00:54:32;;;;;;;91.00;43.87;;;;;;;-3.07;79.41;97997.22;1826634;77;21030;-72
2021/03/19 00:56:58;;;;;;;97.90;49.00;;;;;;;-3.13;79.60;97995.64;1826756;78;21114;-72
2021/03/19 00:59:24;;;;;;;107.35;47.10;;;;;;;-3.20;79.78;97999.26;1826726;77;21011;-72
2021/03/19 01:01:50;;;;;;;94.85;44.18;;;;;;;-3.16;80.04;98001.85;1826786;78;21105;-72
2021/03/19 01:04:16;;;;;;;80.30;40.23;;;;;;;-3.16;79.40;97999.20;1826808;77;21199;-72
2021/03/19 01:06:42;;;;;;;88.87;42.78;;;;;;;-3.24;79.24;97995.37;1826566;78;21050;-72
2021/03/19 01:09:08;;;;;;;86.67;40.58;;;;;;;-3.33;79.18;97995.16;1826688;77;21123;-72
2021/03/19 01:11:34;;;;;;;86.60;39.42;;;;;;;-3.41;79.21;97989.52;1826744;78;21023;-72
2021/03/19 01:14:01;;;;;;;77.45;40.20;;;;;;;-3.45;79.39;97989.58;1826712;77;21113;-72
2021/03/19 01:16:27;;;;;;;80.35;36.00;;;;;;;-3.47;79.33;97992.42;1826767;78;21292;-72
2021/03/19 01:18:53;;;;;;;81.32;37.65;;;;;;;-3.47;80.11;97991.61;1826620;78;21567;-72
2021/03/19 01:21:19;;;;;;;82.92;40.33;;;;;;;-3.44;79.49;97989.37;1826738;78;21534;-72
2021/03/19 01:23:46;;;;;;;80.32;41.55;;;;;;;-3.48;81.17;97986.00;1826753;78;21157;-72
2021/03/19 01:26:13;;;;;;;85.20;43.23;;;;;;;-3.44;81.40;97985.91;1826621;77;21420;-73
2021/03/19 01:28:40;;;;;;;85.25;41.00;;;;;;;-3.39;81.00;97990.66;1824716;78;21253;-72
2021/03/19 01:31:07;;;;;;;91.75;41.35;;;;;;;-3.42;79.65;97988.70;1824585;77;21153;-72
2021/03/19 01:33:34;;;;;;;75.90;39.83;;;;;;;-3.49;80.38;97991.80;1824688;78;21475;-72
2021/03/19 01:36:06;;;;;;;103.27;43.38;;;;;;;-3.49;79.62;97990.98;1824624;77;21055;-72
2021/03/19 01:38:29;;;;;;;83.90;40.33;;;;;;;-3.56;79.52;97986.95;1824674;78;21097;-72
2021/03/19 01:40:55;;;;;;;84.62;39.23;;;;;;;-3.60;79.29;97980.87;1824705;77;21245;-72
2021/03/19 01:43:59;;;;;;;94.90;45.30;;;;;;;-3.67;79.20;97979.52;1824566;78;21019;-72
2021/03/19 01:47:22;;;;;;;78.45;36.13;;;;;;;-3.80;81.18;97978.06;1824601;78;21063;-72
2021/03/19 01:50:45;;;;;;;82.37;38.20;;;;;;;-3.79;81.04;97979.70;1824595;77;21118;-72
2021/03/19 01:54:07;;;;;;;79.62;36.68;;;;;;;-3.82;81.65;97978.25;1824743;78;21396;-73
2021/03/19 01:57:30;;;;;;;78.30;35.38;;;;;;;-3.79;81.36;97975.72;1824656;78;21381;-72
2021/03/19 02:00:52;;;;;;;75.45;39.40;;;;;;;-3.84;80.20;97972.84;1824573;77;21538;-72
2021/03/19 02:04:15;;;;;;;80.95;39.85;;;;;;;-3.86;80.60;97978.30;1824597;78;21114;-72
2021/03/19 02:07:37;;;;;;;80.03;40.10;;;;;;;-3.93;81.64;97977.44;1824555;78;21252;-72
2021/03/19 02:11:00;;;;;;;88.82;40.12;;;;;;;-3.86;81.37;97978.80;1824649;77;21004;-72
2021/03/19 02:14:22;;;;;;;80.15;40.73;;;;;;;-3.86;81.01;97973.52;1824618;78;21194;-73
2021/03/19 02:17:44;;;;;;;84.85;41.30;;;;;;;-3.92;81.43;97972.45;1824561;78;21507;-72
2021/03/19 02:21:07;;;;;;;84.45;41.98;;;;;;;-3.95;81.94;97979.94;1824579;77;21034;-72
2021/03/19 02:24:30;;;;;;;85.85;39.58;;;;;;;-4.02;81.44;97981.19;1824693;78;21019;-72
2021/03/19 02:27:52;;;;;;;78.35;35.28;;;;;;;-4.03;80.96;97981.70;1826162;78;21094;-72
2021/03/19 02:33:56;;;;;;;81.08;36.95;;;;;;;-4.18;80.13;97986.23;1848100;76;22627;-70
2021/03/19 02:36:26;;;;;;;76.17;36.75;;;;;;;-4.22;79.75;97986.27;1785992;80;21086;-72
2021/03/19 02:38:52;;;;;;;77.25;40.12;;;;;;;-4.24;81.24;97987.48;1785908;79;21174;-73
2021/03/19 02:41:19;;;;;;;89.15;40.83;;;;;;;-4.16;81.42;97990.83;1785865;80;20987;-72
2021/03/19 02:43:45;;;;;;;77.80;37.53;;;;;;;-4.04;80.82;97988.50;1785937;79;21459;-72
2021/03/19 02:46:11;;;;;;;82.42;39.90;;;;;;;-3.97;80.22;97989.40;1785949;79;21070;-72
2021/03/19 02:48:37;;;;;;;80.50;37.20;;;;;;;-4.01;80.53;97986.32;1785920;80;21400;-72
2021/03/19 02:51:04;;;;;;;77.42;38.10;;;;;;;-3.96;80.40;97988.39;1785975;80;21236;-72
2021/03/19 02:53:31;;;;;;;84.40;38.17;;;;;;;-4.03;79.89;97984.34;1785858;79;21477;-72
2021/03/19 02:55:59;;;;;;;70.40;35.45;;;;;;;-4.07;80.31;97979.63;1785869;79;20909;-72
2021/03/19 02:58:25;;;;;;;94.15;46.10;;;;;;;-4.04;79.91;97985.86;1785815;80;21083;-72
2021/03/19 03:00:52;;;;;;;98.65;43.92;;;;;;;-4.05;80.00;97988.19;1785869;80;21059;-72
2021/03/19 03:03:18;;;;;;;101.87;49.58;;;;;;;-4.09;80.47;97988.27;1785913;80;21198;-72
2021/03/19 03:05:44;;;;;;;93.00;45.80;;;;;;;-4.16;80.79;97989.51;1785876;80;21412;-72
2021/03/19 03:08:13;;;;;;;93.72;42.25;;;;;;;-4.17;80.45;97989.70;1785851;80;21483;-72
2021/03/19 03:10:39;;;;;;;92.37;39.10;;;;;;;-4.22;81.12;97998.19;1786033;80;21098;-72
2021/03/19 03:13:07;;;;;;;97.80;44.20;;;;;;;-4.29;81.16;97996.78;1785830;80;21026;-72
2021/03/19 03:15:33;;;;;;;93.55;41.37;;;;;;;-4.27;80.89;97995.30;1785809;80;21195;-72
2021/03/19 03:17:59;;;;;;;117.25;52.70;;;;;;;-4.28;79.96;97995.77;1785784;79;21133;-72
2021/03/19 03:20:32;;;;;;;87.97;39.92;;;;;;;-4.34;79.73;97998.36;1785824;80;21035;-72
2021/03/19 03:22:58;;;;;;;74.97;30.72;;;;;;;-4.41;79.65;98002.24;1785867;79;21043;-72
2021/03/19 03:25:25;;;;;;;72.05;34.23;;;;;;;-4.48;80.07;98003.98;1785811;80;21007;-73
2021/03/19 03:27:52;;;;;;;84.15;37.75;;;;;;;-4.47;80.59;98002.97;1785870;80;21211;-72
2021/03/19 03:30:26;;;;;;;85.05;37.03;;;;;;;-4.49;80.67;97995.73;1785783;80;21508;-72
2021/03/19 03:32:52;;;;;;;78.83;38.30;;;;;;;-4.41;80.42;97990.84;1750911;81;21105;-72
2021/03/19 03:35:19;;;;;;;80.30;40.43;;;;;;;-4.39;81.16;97998.91;1751260;81;21473;-72
2021/03/19 03:37:45;;;;;;;90.15;38.42;;;;;;;-4.35;81.33;97990.11;1733002;82;21034;-72
2021/03/19 03:40:17;;;;;;;88.50;39.30;;;;;;;-4.31;80.35;97988.72;1785898;80;21247;-72
2021/03/19 03:42:44;;;;;;;87.85;40.30;;;;;;;-4.36;82.18;97990.61;1785839;80;20964;-71
2021/03/19 03:45:11;;;;;;;75.75;35.10;;;;;;;-4.29;81.40;97991.48;1785319;80;21129;-71
2021/03/19 03:47:37;;;;;;;90.40;39.73;;;;;;;-4.24;80.67;97987.48;1785319;80;21056;-71
2021/03/19 03:50:11;;;;;;;89.65;39.45;;;;;;;-4.24;81.09;97996.74;1785280;80;21063;-71
2021/03/19 03:52:37;;;;;;;96.92;39.45;;;;;;;-4.18;80.63;97996.00;1781832;80;21466;-72
2021/03/19 03:55:06;;;;;;;101.75;38.33;;;;;;;-4.21;80.11;97996.36;1785187;80;21082;-73
2021/03/19 03:57:32;;;;;;;83.03;40.23;;;;;;;-4.28;79.97;97992.30;1785457;80;21495;-73
2021/03/19 03:59:58;;;;;;;86.80;33.98;;;;;;;-4.30;80.50;97986.38;1785302;80;21087;-72
2021/03/19 04:02:26;;;;;;;109.03;39.03;;;;;;;-4.32;80.31;97991.05;1785243;80;21146;-72
2021/03/19 04:04:52;;;;;;;100.72;48.52;;;;;;;-4.35;80.16;97993.58;1785358;80;21285;-73
2021/03/19 04:07:19;;;;;;;138.55;53.30;;;;;;;-4.35;80.79;97993.58;1785253;80;21043;-72
2021/03/19 04:09:45;;;;;;;107.78;47.25;;;;;;;-4.25;80.44;97990.63;1785208;80;21050;-73
2021/03/19 04:12:11;;;;;;;94.17;40.67;;;;;;;-4.17;80.11;97997.64;1785283;80;21162;-73
2021/03/19 04:14:39;;;;;;;119.57;43.42;;;;;;;-4.18;80.01;97990.71;1785323;80;21495;-72
2021/03/19 04:17:13;;;;;;;98.25;43.60;;;;;;;-4.19;79.75;97985.08;1785285;80;21191;-73
2021/03/19 04:19:39;;;;;;;129.82;60.48;;;;;;;-4.24;79.55;97992.77;1781144;80;21122;-72
2021/03/19 04:22:05;;;;;;;137.18;59.75;;;;;;;-4.27;79.44;97994.79;1785295;80;21122;-72
2021/03/19 04:24:32;;;;;;;116.00;49.70;;;;;;;-4.25;79.45;97994.59;1785265;80;21480;-72
2021/03/19 04:26:58;;;;;;;91.20;44.20;;;;;;;-4.23;79.41;97997.05;1785213;80;21134;-72
2021/03/19 04:29:24;;;;;;;110.12;49.85;;;;;;;-4.22;79.79;97991.56;1785235;80;21404;-72
2021/03/19 04:31:50;;;;;;;92.88;38.48;;;;;;;-4.23;79.38;97992.58;1785256;80;21145;-72
2021/03/19 04:34:16;;;;;;;131.80;58.92;;;;;;;-4.27;79.13;97986.85;1785231;80;21615;-72
2021/03/19 04:36:46;;;;;;;121.60;60.33;;;;;;;-4.40;79.42;97991.16;1785228;80;20984;-72
2021/03/19 04:39:23;;;;;;;99.90;50.23;;;;;;;-4.38;79.83;97988.63;1785236;80;21071;-72
2021/03/19 04:41:51;;;;;;;99.72;45.25;;;;;;;-4.39;79.90;97990.14;1785344;80;21187;-73
2021/03/19 04:44:19;;;;;;;94.22;47.40;;;;;;;-4.42;80.06;97995.31;1785344;80;21166;-73
2021/03/19 04:46:45;;;;;;;74.07;36.50;;;;;;;-4.46;80.26;97990.56;1785199;80;21102;-72
2021/03/19 04:49:11;;;;;;;75.50;34.43;;;;;;;-4.43;79.93;97988.39;1785169;80;21078;-73
2021/03/19 04:51:37;;;;;;;91.72;39.13;;;;;;;-4.46;79.29;97982.63;1785313;80;21110;-72
2021/03/19 04:54:05;;;;;;;97.10;40.63;;;;;;;-4.54;79.42;97989.66;1785154;80;21300;-72
2021/03/19 04:56:31;;;;;;;74.05;35.23;;;;;;;-4.58;79.68;97988.91;1785119;80;21111;-72
2021/03/19 04:58:57;;;;;;;80.40;36.25;;;;;;;-4.58;79.87;97989.72;1785204;80;21023;-73
2021/03/19 05:01:23;;;;;;;80.92;38.78;;;;;;;-4.62;80.07;98000.84;1785236;80;21574;-73
2021/03/19 05:03:49;;;;;;;75.17;36.25;;;;;;;-4.61;80.76;98001.19;1785278;80;21134;-73
2021/03/19 05:06:16;;;;;;;66.55;31.85;;;;;;;-4.54;81.26;97991.48;1785267;80;22113;-73
2021/03/19 05:08:42;;;;;;;65.55;32.65;;;;;;;-4.48;79.88;97998.69;1785256;80;21094;-73
2021/03/19 05:11:09;;;;;;;81.53;37.85;;;;;;;-4.48;79.59;98001.84;1785193;80;21444;-73
2021/03/19 05:13:35;;;;;;;67.60;31.57;;;;;;;-4.45;79.87;98004.92;1785152;80;21015;-73
2021/03/19 05:16:01;;;;;;;77.80;32.53;;;;;;;-4.38;80.26;98006.33;1785170;80;21070;-72
2021/03/19 05:18:27;;;;;;;67.82;35.30;;;;;;;-4.29;80.57;98002.58;1785163;80;22077;-72
2021/03/19 05:20:53;;;;;;;186.05;73.15;;;;;;;-4.24;80.12;98009.97;1785088;80;21089;-73
2021/03/19 05:23:27;;;;;;;91.47;43.28;;;;;;;-4.17;80.48;98014.84;1785229;80;21165;-73
2021/03/19 05:25:54;;;;;;;84.10;39.90;;;;;;;-4.10;80.46;98015.23;1784760;80;21102;-71
2021/03/19 05:28:20;;;;;;;93.07;43.10;;;;;;;-3.95;80.05;98015.67;1785300;80;21518;-71
2021/03/19 05:30:47;;;;;;;77.15;35.08;;;;;;;-3.98;79.69;98011.08;1785134;80;21187;-71
2021/03/19 05:33:14;;;;;;;80.40;38.53;;;;;;;-3.94;79.30;98014.16;1785035;80;21107;-71
2021/03/19 05:35:40;;;;;;;82.88;40.70;;;;;;;-3.91;79.87;98015.12;1785245;80;21511;-71
2021/03/19 05:38:06;;;;;;;90.17;42.50;;;;;;;-3.79;79.82;98012.80;1785222;80;21026;-72
2021/03/19 05:40:37;;;;;;;106.25;55.80;;;;;;;-3.68;79.95;98020.23;1785189;80;21490;-71
2021/03/19 05:43:30;;;;;;;88.72;41.70;;;;;;;-3.69;78.96;98016.77;1748593;81;22880;-71
2021/03/19 05:46:17;;;;;;;84.97;42.00;;;;;;;-3.62;78.62;98018.16;1732038;82;21148;-72
2021/03/19 05:49:09;;;;;;;92.30;44.30;;;;;;;-3.56;78.63;98020.06;1732470;82;21530;-72
2021/03/19 05:51:40;;;;;;;86.40;41.02;;;;;;;-3.51;78.74;98022.94;1785261;80;21566;-72
2021/03/19 05:54:31;;;;;;;92.50;42.43;;;;;;;-3.42;78.74;98020.50;1785051;80;21083;-72
2021/03/19 05:57:08;;;;;;;92.65;42.60;;;;;;;-3.27;78.80;98024.38;1785151;80;21248;-72
2021/03/19 05:59:40;;;;;;;82.12;36.58;;;;;;;-3.08;78.56;98032.67;1785093;80;21169;-71
2021/03/19 06:02:34;;;;;;;68.37;37.20;;;;;;;-2.90;78.56;98027.22;1750363;81;21085;-72
2021/03/19 06:05:17;;;;;;;73.80;35.05;;;;;;;-2.78;78.15;98029.33;1732491;81;21514;-72
2021/03/19 06:07:56;;;;;;;67.27;32.90;;;;;;;-2.73;77.44;98029.58;1732474;82;21113;-71
2021/03/19 06:10:35;;;;;;;72.53;37.50;;;;;;;-2.73;77.56;98030.39;1732485;82;21486;-73
2021/03/19 06:13:21;;;;;;;67.35;32.50;;;;;;;-2.67;77.50;98028.27;1785054;80;21035;-72
2021/03/19 06:15:50;;;;;;;68.10;32.03;;;;;;;-2.60;77.41;98033.62;1785140;80;21051;-71
2021/03/19 06:18:22;;;;;;;68.80;35.95;;;;;;;-2.58;77.40;98031.08;1785123;80;21070;-72
2021/03/19 06:20:58;;;;;;;52.15;26.75;;;;;;;-2.54;77.41;98032.03;1785176;80;21400;-72
2021/03/19 06:23:25;;;;;;;68.97;33.95;;;;;;;-2.39;77.18;98026.91;1784366;80;22111;-72
2021/03/19 06:26:20;;;;;;;81.17;33.50;;;;;;;-2.39;77.04;98032.22;1785073;80;21102;-72
2021/03/19 06:28:53;;;;;;;69.25;35.17;;;;;;;-2.34;77.15;98027.12;1785133;80;21050;-72
2021/03/19 06:31:28;;;;;;;64.80;29.87;;;;;;;-2.25;77.10;98031.75;1785245;80;21538;-72
2021/03/19 06:34:12;;;;;;;80.65;38.53;;;;;;;-2.13;77.10;98039.48;1785129;78;21393;-72
2021/03/19 06:36:58;;;;;;;81.60;37.38;;;;;;;-2.08;76.92;98030.91;1785239;80;21433;-71
2021/03/19 06:39:28;;;;;;;90.57;44.33;;;;;;;-2.02;76.43;98038.90;1785173;80;21415;-72
2021/03/19 06:42:04;;;;;;;69.37;35.88;;;;;;;-2.02;76.62;98034.10;1785222;80;21087;-72
2021/03/19 06:44:30;;;;;;;78.40;36.13;;;;;;;-2.00;76.88;98040.02;1785098;80;21476;-71
2021/03/19 06:46:59;;;;;;;79.32;39.90;;;;;;;-1.91;77.52;98042.81;1785220;80;21185;-71
2021/03/19 06:49:26;;;;;;;72.78;34.38;;;;;;;-1.83;77.52;98041.30;1785243;80;21195;-71
2021/03/19 06:52:18;;;;;;;72.92;36.77;;;;;;;-1.70;77.52;98040.53;1785152;80;21114;-71
2021/03/19 06:54:58;;;;;;;77.70;37.13;;;;;;;-1.55;77.07;98039.02;1783802;80;21413;-72
2021/03/19 06:57:26;;;;;;;77.00;37.05;;;;;;;-1.46;76.86;98035.14;1785155;80;21094;-72
2021/03/19 06:59:58;;;;;;;87.33;41.28;;;;;;;-1.37;76.87;98036.58;1785080;80;21090;-72
2021/03/19 07:02:52;;;;;;;92.33;39.53;;;;;;;-1.35;76.78;98040.39;1785138;80;21156;-72
2021/03/19 07:05:45;;;;;;;82.55;38.55;;;;;;;-1.25;76.88;98044.80;1785031;80;21082;-72
2021/03/19 07:08:23;;;;;;;76.62;38.33;;;;;;;-1.01;76.94;98042.05;1785125;80;21174;-72
2021/03/19 07:11:25;;;;;;;73.67;37.33;;;;;;;-0.57;76.61;98044.85;1785200;80;21488;-71
2021/03/19 07:14:29;;;;;;;71.07;39.67;;;;;;;-0.30;75.05;98048.27;1784605;80;21099;-71
2021/03/19 07:17:08;;;;;;;82.92;42.53;;;;;;;0.06;74.19;98044.23;1780889;80;21196;-71
2021/03/19 07:19:40;;;;;;;77.12;40.15;;;;;;;0.39;73.57;98044.59;1784669;80;21463;-72
2021/03/19 07:22:35;;;;;;;84.72;43.30;;;;;;;0.23;70.38;98044.56;1784116;80;21118;-72
2021/03/19 07:25:22;;;;;;;97.45;47.73;;;;;;;0.11;70.12;98051.09;1785215;80;21075;-71
2021/03/19 07:28:14;;;;;;;92.12;49.77;;;;;;;0.51;71.63;98049.05;1785389;80;21479;-72
2021/03/19 07:31:12;;;;;;;80.95;44.10;;;;;;;1.06;72.88;98053.26;1784970;80;22149;-71
2021/03/19 07:34:25;;;;;;;81.70;46.88;;;;;;;1.55;70.70;98046.25;1785061;80;21019;-71
2021/03/19 07:37:24;;;;;;;110.85;57.98;;;;;;;1.86;71.74;98053.30;1785363;80;21119;-71
2021/03/19 07:40:22;;;;;;;86.95;48.23;;;;;;;1.71;69.97;98047.52;1785294;80;21118;-72
2021/03/19 07:43:31;;;;;;;75.42;44.50;;;;;;;1.76;70.97;98046.84;1785287;80;21062;-72
2021/03/19 07:46:29;;;;;;;84.52;46.37;;;;;;;1.79;71.38;98056.55;1785200;80;21205;-71
2021/03/19 07:49:39;;;;;;;69.95;38.45;;;;;;;1.79;70.96;98053.06;1785240;80;21039;-71
2021/03/19 07:52:16;;;;;;;111.12;48.83;;;;;;;1.73;67.70;98050.78;1785250;80;21150;-72
2021/03/19 07:54:53;;;;;;;81.32;42.88;;;;;;;1.65;68.39;98048.41;1784441;80;21090;-72
2021/03/19 07:57:43;;;;;;;63.50;36.23;;;;;;;1.86;69.86;98053.30;1785012;80;21142;-71
2021/03/19 08:00:29;;;;;;;72.70;40.20;;;;;;;1.91;68.68;98054.79;1785218;80;21197;-71
2021/03/19 08:03:14;;;;;;;61.55;33.80;;;;;;;1.96;67.86;98056.25;1785193;80;21103;-71
2021/03/19 08:05:48;;;;;;;60.83;31.85;;;;;;;2.14;67.93;98052.78;1785223;80;21087;-72
2021/03/19 08:08:34;;;;;;;63.05;33.42;;;;;;;2.18;67.51;98051.80;1785326;80;21484;-71
2021/03/19 08:11:32;;;;;;;71.30;35.55;;;;;;;2.09;67.45;98057.97;1784663;80;21071;-71
2021/03/19 08:14:44;;;;;;;98.35;45.95;;;;;;;2.09;67.72;98063.84;1785121;80;21107;-71
2021/03/19 08:17:39;;;;;;;79.53;36.83;;;;;;;2.29;68.94;98053.70;1785179;80;21126;-71
2021/03/19 08:20:29;;;;;;;72.87;39.70;;;;;;;2.29;68.73;98055.04;1785000;80;21432;-73
2021/03/19 08:23:15;;;;;;;79.22;41.68;;;;;;;2.52;68.49;98057.82;1785097;80;21491;-72
2021/03/19 08:25:47;;;;;;;79.50;47.05;;;;;;;2.49;66.80;98058.81;1784878;80;21114;-71
2021/03/19 08:28:43;;;;;;;50.70;30.50;;;;;;;2.65;68.24;98057.33;1785338;80;21190;-72
2021/03/19 08:31:32;;;;;;;58.45;33.18;;;;;;;2.79;65.76;98048.07;1750012;81;21368;-72
2021/03/19 08:34:27;;;;;;;62.08;33.58;;;;;;;2.95;67.29;98049.28;1732502;82;21057;-72
2021/03/19 08:36:54;;;;;;;41.25;24.32;;;;;;;3.66;66.31;98044.24;1759002;81;21144;-71
2021/03/19 08:39:42;;;;;;;48.78;25.68;;;;;;;4.87;63.62;98038.33;1733289;82;21443;-72
2021/03/19 08:42:19;;;;;;;34.25;21.35;;;;;;;5.67;62.91;98039.84;1759074;81;21200;-72
2021/03/19 08:44:46;;;;;;;24.43;16.32;;;;;;;6.55;60.83;98027.77;1733127;82;21061;-71
2021/03/19 08:47:28;;;;;;;20.57;14.20;;;;;;;6.57;59.70;98039.09;1759073;81;21576;-71
2021/03/19 08:49:59;;;;;;;19.98;12.95;;;;;;;6.42;59.47;98036.52;1733191;82;21049;-71
2021/03/19 08:52:38;;;;;;;19.67;12.68;;;;;;;5.75;58.76;98035.92;1758963;81;21120;-72
2021/03/19 08:55:18;;;;;;;24.20;16.30;;;;;;;4.90;53.37;98035.14;1708125;82;21225;-71
2021/03/19 08:57:50;;;;;;;18.60;12.20;;;;;;;4.45;59.01;98036.49;1758919;81;21112;-72
2021/03/19 09:00:27;;;;;;;16.37;10.53;;;;;;;3.95;58.02;98037.92;1758280;81;21152;-71
2021/03/19 09:03:03;;;;;;;15.18;9.98;;;;;;;3.29;54.05;98045.02;1741013;81;21500;-72
2021/03/19 09:06:07;;;;;;;15.32;9.35;;;;;;;2.76;54.70;98039.98;1758952;81;21553;-72
2021/03/19 09:08:58;;;;;;;14.30;9.75;;;;;;;2.57;57.55;98035.75;1758939;81;21195;-72
2021/03/19 09:11:31;;;;;;;12.43;7.75;;;;;;;2.31;57.52;98038.27;1733273;82;21471;-71
2021/03/19 09:14:05;;;;;;;17.05;9.13;;;;;;;2.35;58.22;98038.09;1750872;81;21624;-72
2021/03/19 09:16:57;;;;;;;14.70;8.88;;;;;;;2.46;58.99;98044.00;1759029;81;21132;-72
2021/03/19 09:19:40;;;;;;;13.43;8.05;;;;;;;2.53;58.94;98035.89;1733196;82;21050;-71
2021/03/19 09:22:27;;;;;;;20.52;11.18;;;;;;;2.82;58.25;98037.74;1758971;81;21192;-71
2021/03/19 09:25:14;;;;;;;20.30;10.90;;;;;;;2.87;55.06;98032.20;1733226;82;21120;-72
2021/03/19 09:28:06;;;;;;;17.20;11.00;;;;;;;3.15;57.71;98034.22;1730588;82;21106;-71
2021/03/19 09:30:44;;;;;;;21.85;12.70;;;;;;;3.59;58.97;98039.52;1758997;81;21093;-72
2021/03/19 09:33:14;;;;;;;23.53;14.47;;;;;;;3.70;55.39;98040.59;1733421;82;21117;-71
2021/03/19 09:35:44;;;;;;;25.62;16.48;;;;;;;3.72;56.88;98039.29;1723842;82;21207;-72
2021/03/19 09:38:30;;;;;;;31.33;16.20;;;;;;;3.50;55.57;98035.56;1732451;82;21133;-72
2021/03/19 09:41:04;;;;;;;28.27;17.07;;;;;;;3.24;54.05;98038.19;1731384;82;21666;-71
2021/03/19 09:43:48;;;;;;;26.80;16.73;;;;;;;2.88;54.73;98040.00;1732470;82;21522;-71
2021/03/19 09:46:29;;;;;;;32.05;16.23;;;;;;;2.92;56.65;98029.15;1785281;80;21405;-72
2021/03/19 09:49:13;;;;;;;55.10;31.55;;;;;;;2.57;55.44;98037.61;1785240;80;22038;-71
2021/03/19 09:51:43;;;;;;;21.48;10.82;;;;;;;2.59;56.80;98031.50;1782994;80;21158;-71
2021/03/19 09:54:30;;;;;;;42.10;20.62;;;;;;;2.93;55.96;98037.47;1785153;80;21665;-71
2021/03/19 09:57:02;;;;;;;148.65;76.75;;;;;;;3.04;56.92;98033.17;1784886;80;21094;-71
2021/03/19 09:59:31;;;;;;;62.78;34.20;;;;;;;3.01;57.16;98037.13;1784948;80;21031;-72
2021/03/19 10:01:57;;;;;;;;;;;;;;;3.15;56.90;98038.23;1787799;80;21380;-72
2021/03/19 10:04:36;;;;;;;44.13;22.17;;;;;;;2.88;56.54;98028.48;1785058;80;20231;-72
2021/03/19 10:07:24;;;;;;;38.83;21.60;;;;;;;3.29;57.64;98035.64;1785379;80;21098;-72
2021/03/19 10:09:53;;;;;;;35.25;20.30;;;;;;;3.34;56.48;98039.27;1785062;80;21130;-72
2021/03/19 10:12:35;;;;;;;36.50;20.08;;;;;;;3.52;57.26;98036.98;1785284;80;21110;-72
2021/03/19 10:15:12;;;;;;;29.42;16.75;;;;;;;3.58;55.49;98039.23;1785022;80;21300;-72
2021/03/19 10:17:38;;;;;;;29.15;16.97;;;;;;;3.56;53.57;98039.47;1781720;80;21030;-72
2021/03/19 10:20:33;;;;;;;26.97;17.15;;;;;;;3.76;55.96;98032.92;1785097;80;21019;-72
2021/03/19 10:23:27;;;;;;;30.88;17.12;;;;;;;3.77;54.61;98037.26;1785170;80;21153;-71
2021/03/19 10:26:10;;;;;;;29.35;16.05;;;;;;;3.96;54.74;98032.03;1785109;80;21467;-72
2021/03/19 10:28:36;;;;;;;39.03;19.85;;;;;;;3.98;54.48;98030.45;1784749;80;21199;-72
2021/03/19 10:31:10;;;;;;;29.85;17.62;;;;;;;4.01;53.84;98033.98;1785024;80;21083;-72
2021/03/19 10:33:51;;;;;;;22.80;12.85;;;;;;;4.04;53.30;98033.00;1784132;80;21130;-72
2021/03/19 10:36:22;;;;;;;41.35;20.97;;;;;;;4.02;53.35;98031.62;1785115;78;21040;-72
2021/03/19 10:39:02;;;;;;;24.30;12.85;;;;;;;3.60;53.79;98035.82;1784684;80;21507;-72
2021/03/19 10:41:44;;;;;;;21.17;12.70;;;;;;;3.36;53.19;98040.36;1783573;80;21151;-73
2021/03/19 10:44:24;;;;;;;17.70;12.35;;;;;;;2.87;51.88;98039.72;1785144;80;21118;-72
2021/03/19 10:47:00;;;;;;;26.25;14.95;;;;;;;2.81;53.02;98040.09;1785206;80;21110;-72
2021/03/19 10:49:50;;;;;;;23.12;12.55;;;;;;;2.51;53.55;98040.14;1785215;80;21443;-72
2021/03/19 10:52:33;;;;;;;21.65;11.15;;;;;;;2.43;53.01;98037.78;1785178;80;21480;-73
2021/03/19 10:55:07;;;;;;;68.78;35.08;;;;;;;2.55;53.68;98036.48;1785246;80;22019;-72
2021/03/19 10:57:37;;;;;;;55.23;26.77;;;;;;;2.30;54.58;98042.48;1785400;80;21515;-72
2021/03/19 11:00:39;;;;;;;37.65;18.77;;;;;;;2.51;55.19;98034.80;1785232;80;21107;-72
2021/03/19 11:03:06;;;;;;;31.30;17.20;;;;;;;2.49;54.34;98038.22;1785223;80;21078;-72
2021/03/19 11:05:35;;;;;;;40.25;20.25;;;;;;;2.58;54.60;98040.58;1785350;80;21479;-72
2021/03/19 11:08:16;;;;;;;38.78;20.65;;;;;;;2.96;55.88;98032.98;1778895;80;21209;-72
2021/03/19 11:10:50;;;;;;;35.78;19.10;;;;;;;3.22;55.86;98030.91;1785260;80;21499;-71
2021/03/19 11:13:30;;;;;;;56.68;20.82;;;;;;;3.28;54.40;98030.81;1785226;80;21087;-71
2021/03/19 11:16:00;;;;;;;42.95;20.37;;;;;;;3.44;54.59;98028.48;1784419;80;21424;-72
2021/03/19 11:18:33;;;;;;;42.80;20.75;;;;;;;3.59;55.38;98025.63;1785314;80;21440;-72
2021/03/19 11:21:09;;;;;;;40.08;21.30;;;;;;;3.90;54.42;98023.58;1785043;80;21440;-72
2021/03/19 11:23:45;;;;;;;35.03;18.87;;;;;;;3.99;55.06;98024.84;1782239;80;21083;-73
2021/03/19 11:26:30;;;;;;;37.20;20.40;;;;;;;4.04;52.52;98020.94;1785198;80;21101;-72
2021/03/19 11:29:16;;;;;;;32.67;18.75;;;;;;;3.99;54.51;98026.19;1785221;80;21079;-72
2021/03/19 11:32:03;;;;;;;35.05;18.42;;;;;;;3.81;54.02;98019.64;1785190;80;21067;-70
2021/03/19 11:34:51;;;;;;;31.27;18.40;;;;;;;3.02;53.24;98029.39;1785087;80;22021;-72
2021/03/19 11:37:27;;;;;;;35.20;18.12;;;;;;;2.83;53.90;98023.84;1781029;80;21488;-72
2021/03/19 11:40:17;;;;;;;31.57;18.55;;;;;;;2.72;54.54;98020.59;1780891;80;21413;-71
2021/03/19 11:42:52;;;;;;;34.63;18.45;;;;;;;2.71;54.49;98024.31;1780836;80;21086;-72
2021/03/19 11:45:28;;;;;;;37.55;22.30;;;;;;;2.78;54.50;98019.68;1780907;80;21043;-72
2021/03/19 11:48:04;;;;;;;43.50;20.37;;;;;;;2.94;54.92;98019.54;1780931;80;21247;-72
2021/03/19 11:50:35;;;;;;;33.00;20.90;;;;;;;3.00;53.43;98023.98;1780727;80;21107;-72
2021/03/19 11:53:08;;;;;;;39.70;22.40;;;;;;;3.05;53.43;98020.88;1780799;80;21086;-72
2021/03/19 11:55:39;;;;;;;37.10;20.40;;;;;;;3.16;53.21;98017.92;1780696;80;21131;-72
2021/03/19 11:58:06;;;;;;;38.70;22.87;;;;;;;3.49;53.50;98024.56;1780938;80;21067;-72
2021/03/19 12:00:34;;;;;;;27.05;18.23;;;;;;;3.53;52.10;98020.38;1780855;80;22040;-72
2021/03/19 12:03:03;;;;;;;28.17;17.12;;;;;;;3.93;53.22;98017.73;1780909;80;21495;-72
2021/03/19 12:05:30;;;;;;;;;;;;;;;4.13;50.42;98009.31;1783466;80;21554;-72
2021/03/19 12:07:57;;;;;;;25.88;15.72;;;;;;;4.42;50.07;98007.44;1780808;80;20242;-72